createdAt,value
2022-12-03T00:04:45.037Z,90154.58
2022-12-03T00:13:06.544Z,90156.08
2022-12-03T00:21:28.050Z,90144.61
2022-12-03T00:29:49.469Z,90150.83
2022-12-03T00:38:10.984Z,90163.33
2022-12-03T00:46:32.595Z,90158.75
2022-12-03T00:54:54.974Z,90161.98
2022-12-03T01:03:16.700Z,90163.73
2022-12-03T01:11:38.180Z,90183.98
2022-12-03T01:20:00.969Z,90183.78
2022-12-03T01:28:22.368Z,90186.55
2022-12-03T01:36:43.837Z,90181.45
2022-12-03T01:45:07.069Z,90185.98
2022-12-03T01:53:28.733Z,90185.06
2022-12-03T02:01:50.231Z,90178.69
2022-12-03T02:10:14.451Z,90174.89
2022-12-03T02:18:36.040Z,90199.04
2022-12-03T02:26:57.701Z,90212.36
2022-12-03T02:35:32.372Z,90203.20
2022-12-03T02:43:53.882Z,90211.58
2022-12-03T02:52:15.483Z,90221.50
2022-12-03T03:00:38.065Z,90246.14
2022-12-03T03:09:00.108Z,90266.70
2022-12-03T03:17:21.657Z,90263.31
2022-12-03T03:25:51.427Z,90258.67
2022-12-03T03:34:14.803Z,90260.42
2022-12-03T03:42:37.355Z,90274.52
2022-12-03T03:50:59.699Z,90290.27
2022-12-03T03:59:21.160Z,90289.60
2022-12-03T04:07:42.641Z,90304.35
2022-12-03T04:16:04.617Z,90302.70
2022-12-03T04:24:26.264Z,90305.48
2022-12-03T04:33:06.711Z,90305.69
2022-12-03T04:41:28.208Z,90310.33
2022-12-03T04:49:51.298Z,90312.84
2022-12-03T04:58:12.735Z,90332.70
2022-12-03T05:06:34.183Z,90339.17
2022-12-03T05:14:55.972Z,90353.89
2022-12-03T05:23:17.698Z,90350.17
2022-12-03T05:31:39.104Z,90352.95
2022-12-03T05:40:01.059Z,90363.45
2022-12-03T05:48:22.967Z,90376.13
2022-12-03T05:56:44.450Z,90363.77
2022-12-03T06:05:07.381Z,90371.02
2022-12-03T06:13:28.811Z,90377.46
2022-12-03T06:21:50.219Z,90381.59
2022-12-03T06:30:12.962Z,90403.14
2022-12-03T06:38:34.381Z,90410.46
2022-12-03T06:46:56.039Z,90430.13
2022-12-03T06:55:17.628Z,90452.41
2022-12-03T07:03:39.104Z,90483.41
2022-12-03T07:12:00.717Z,90512.98
2022-12-03T07:20:22.260Z,90510.92
2022-12-03T07:28:43.655Z,90515.96
2022-12-03T07:37:05.187Z,90539.46
2022-12-03T07:45:27.052Z,90554.91
2022-12-03T07:53:48.680Z,90578.93
2022-12-03T08:02:10.177Z,90604.33
2022-12-03T08:10:31.847Z,90625.16
2022-12-03T08:18:54.057Z,90663.40
2022-12-03T08:27:19.423Z,90680.98
2022-12-03T08:35:49.501Z,90727.25
2022-12-03T08:44:27.695Z,90753.40
2022-12-03T08:52:49.410Z,90785.50
2022-12-03T09:01:10.954Z,90818.63
2022-12-03T09:09:33.913Z,90833.02
2022-12-03T09:17:55.396Z,90875.83
2022-12-03T09:26:17.000Z,90903.91
2022-12-03T09:34:38.460Z,90939.08
2022-12-03T09:43:00.283Z,90980.81
2022-12-03T09:51:25.269Z,91013.65
2022-12-03T09:59:47.010Z,91034.60
2022-12-03T10:08:12.537Z,91067.11
2022-12-03T10:16:35.360Z,91083.34
2022-12-03T10:25:11.115Z,91127.28
2022-12-03T10:33:44.104Z,91205.74
2022-12-03T10:42:18.056Z,91250.91
2022-12-03T10:50:47.066Z,91258.21
2022-12-03T10:59:19.361Z,91256.15
2022-12-03T11:07:42.203Z,91260.13
2022-12-03T11:16:05.370Z,91244.76
2022-12-03T11:24:26.913Z,91264.77
2022-12-03T11:32:54.524Z,91268.70
2022-12-03T11:41:26.992Z,91244.90
2022-12-03T11:49:48.589Z,91254.52
2022-12-03T11:58:30.597Z,91269.47
2022-12-03T12:06:53.575Z,91256.85
2022-12-03T12:15:43.612Z,91270.24
2022-12-03T12:24:40.722Z,91279.00
2022-12-03T12:33:25.748Z,91269.73
2022-12-03T12:41:49.691Z,91267.73
2022-12-03T12:50:11.684Z,91251.88
2022-12-03T12:58:33.763Z,91248.83
2022-12-03T13:06:55.331Z,91237.17
2022-12-03T13:15:35.662Z,91245.61
2022-12-03T13:23:58.090Z,91268.38
2022-12-03T13:32:22.684Z,91269.84
2022-12-03T13:40:44.234Z,91275.74
2022-12-03T13:49:18.496Z,91298.92
2022-12-03T13:57:39.929Z,91295.34
2022-12-03T14:06:01.479Z,91288.32
2022-12-03T14:14:23.211Z,91296.44
2022-12-03T14:22:45.090Z,91304.04
2022-12-03T14:31:06.582Z,91299.20
2022-12-03T14:39:28.157Z,91294.69
2022-12-03T14:47:49.674Z,91296.43
2022-12-03T14:56:11.103Z,91292.66
2022-12-03T15:04:32.787Z,91299.91
2022-12-03T15:12:54.217Z,91314.55
2022-12-03T15:21:17.154Z,91313.52
2022-12-03T15:29:40.488Z,91319.41
2022-12-03T15:38:03.909Z,91331.63
2022-12-03T15:46:30.604Z,91343.54
2022-12-03T15:54:54.775Z,91360.20
2022-12-03T16:03:18.487Z,91369.14
2022-12-03T16:11:40.380Z,91368.29
2022-12-03T16:20:02.213Z,91365.34
2022-12-03T16:28:23.968Z,91369.05
2022-12-03T16:36:45.423Z,91370.27
2022-12-03T16:45:08.168Z,91401.90
2022-12-03T16:53:30.009Z,91449.34
2022-12-03T17:01:51.646Z,91461.48
2022-12-03T17:10:13.259Z,91465.78
2022-12-03T17:18:34.765Z,91474.95
2022-12-03T17:26:56.285Z,91456.45
2022-12-03T17:35:18.884Z,91446.81
2022-12-03T17:43:40.352Z,91455.86
2022-12-03T17:52:01.880Z,91446.59
2022-12-03T18:00:23.449Z,91432.17
2022-12-03T18:08:44.989Z,91442.40
2022-12-03T18:17:06.503Z,91455.62
2022-12-03T18:25:28.950Z,91450.73
2022-12-03T18:33:50.506Z,91441.92
2022-12-03T18:42:16.526Z,91447.88
2022-12-03T18:50:39.422Z,91437.83
2022-12-03T18:59:02.155Z,91425.96
2022-12-03T19:07:23.603Z,91416.75
2022-12-03T19:15:45.994Z,91407.63
2022-12-03T19:24:24.792Z,91399.54
2022-12-03T19:32:51.663Z,91401.36
2022-12-03T19:41:13.424Z,91373.53
2022-12-03T19:49:35.066Z,91360.23
2022-12-03T19:57:56.628Z,91363.02
2022-12-03T20:06:22.401Z,91351.90
2022-12-03T20:14:44.720Z,91350.38
2022-12-03T20:23:06.428Z,91339.77
2022-12-03T20:31:30.647Z,91295.20
2022-12-03T20:39:54.033Z,91273.70
2022-12-03T20:48:16.232Z,91271.71
2022-12-03T20:56:44.583Z,91251.78
2022-12-03T21:05:07.145Z,91242.86
2022-12-03T21:13:32.284Z,91247.05
2022-12-03T21:21:54.359Z,91239.65
2022-12-03T21:30:16.125Z,91247.42
2022-12-03T21:38:37.784Z,91260.52
2022-12-03T21:47:09.617Z,91255.48
2022-12-03T21:55:39.950Z,91247.01
2022-12-03T22:04:01.638Z,91245.45
2022-12-03T22:12:23.674Z,91231.84
2022-12-03T22:20:45.116Z,91228.84
2022-12-03T22:29:06.566Z,91223.88
2022-12-03T22:37:28.306Z,91209.50
2022-12-03T22:45:55.881Z,91228.06
2022-12-03T22:54:22.389Z,91235.28
2022-12-03T23:02:46.010Z,91229.71
2022-12-03T23:11:07.658Z,91228.52
2022-12-03T23:19:29.145Z,91215.52
2022-12-03T23:27:50.616Z,91210.45
2022-12-03T23:36:12.849Z,91208.66
2022-12-03T23:44:34.332Z,91204.92
2022-12-03T23:52:56.050Z,91209.65
